Hatfield, United Kingdom
Current Conditions -  °F | °C
As of 3:50 AM on Thursday 29 Jan 2015 (Local Time) from EGGW Reporting Station
Few Clouds Few Clouds  
Wind Chill: 25°   Ceiling: Unl
Heat Index: 36°   Visibility: 6mi
Dew Point: 30°   Wind: 21mph
Humidity: 81%   Direction: 240°WSW
Pressure: 29.29"   Gusts: NA
Location:  51.75°N, 0.23°W
Report Text: EGGW 290350Z 24018KT 9999 FEW042 02/M01 Q0992
Loading
Personal Weather Stations






























Interactive Weather Map New forecast layout! Learn more

10-Day Weather Forecast

Advertisements
Track Severe Weather on mobile